createdAt,value
2023-01-23T00:04:13.366Z,99858.66
2023-01-23T00:09:16.142Z,99862.94
2023-01-23T00:14:18.930Z,99871.72
2023-01-23T00:19:23.087Z,99866.53
2023-01-23T00:24:25.816Z,99859.50
2023-01-23T00:29:28.546Z,99868.34
2023-01-23T00:34:32.668Z,99863.16
2023-01-23T00:39:35.420Z,99857.75
2023-01-23T00:44:38.243Z,99865.63
2023-01-23T00:49:42.424Z,99866.44
2023-01-23T00:54:46.009Z,99862.19
2023-01-23T00:59:48.866Z,99868.34
2023-01-23T01:04:53.227Z,99876.22
2023-01-23T01:09:56.116Z,99881.53
2023-01-23T01:14:58.925Z,99870.06
2023-01-23T01:20:04.270Z,99888.53
2023-01-23T01:25:08.017Z,99889.38
2023-01-23T01:30:12.320Z,99883.28
2023-01-23T01:35:16.404Z,99882.38
2023-01-23T01:40:21.651Z,99889.47
2023-01-23T01:46:16.507Z,99890.34
2023-01-23T01:51:28.986Z,99895.63
2023-01-23T01:56:36.604Z,99902.69
2023-01-23T02:01:41.261Z,99899.22
2023-01-23T02:06:45.594Z,99909.88
2023-01-23T02:11:50.060Z,99911.53
2023-01-23T02:16:59.870Z,99910.88
2023-01-23T02:22:20.909Z,99915.56
2023-01-23T02:27:25.170Z,99913.09
2023-01-23T02:32:29.351Z,99917.44
2023-01-23T02:37:35.495Z,99923.53
2023-01-23T02:42:42.869Z,99932.28
2023-01-23T02:47:48.024Z,99931.28
2023-01-23T02:52:54.689Z,99938.31
2023-01-23T02:58:18.897Z,99942.63
2023-01-23T03:03:21.671Z,99952.19
2023-01-23T03:08:34.251Z,99946.88
2023-01-23T03:13:38.515Z,99947.78
2023-01-23T03:18:53.599Z,99945.16
2023-01-23T03:23:57.892Z,99950.34
2023-01-23T03:29:19.640Z,99955.56
2023-01-23T03:34:22.948Z,99951.22
2023-01-23T03:39:43.896Z,99950.41
2023-01-23T03:44:48.556Z,99944.25
2023-01-23T03:49:51.627Z,99952.19
2023-01-23T03:54:55.178Z,99953.03
2023-01-23T03:59:59.364Z,99958.34
2023-01-23T04:05:06.018Z,99958.34
2023-01-23T04:10:12.930Z,99957.44
2023-01-23T04:15:18.227Z,99949.50
2023-01-23T04:20:21.756Z,99959.13
2023-01-23T04:25:24.878Z,99964.38
2023-01-23T04:30:30.118Z,99967.88
2023-01-23T04:35:37.650Z,99969.59
2023-01-23T04:40:40.698Z,99973.13
2023-01-23T04:45:45.372Z,99969.66
2023-01-23T04:51:07.484Z,99970.38
2023-01-23T04:56:10.975Z,99966.09
2023-01-23T05:01:15.364Z,99966.91
2023-01-23T05:06:18.276Z,99968.63
2023-01-23T05:11:21.137Z,99961.63
2023-01-23T05:16:25.671Z,99955.41
2023-01-23T05:21:57.786Z,99955.47
2023-01-23T05:27:02.441Z,99954.50
2023-01-23T05:32:09.041Z,99951.91
2023-01-23T05:37:14.514Z,99958.09
2023-01-23T05:42:21.623Z,99958.78
2023-01-23T05:47:49.032Z,99965.00
2023-01-23T05:52:53.690Z,99971.16
2023-01-23T05:57:56.455Z,99977.22
2023-01-23T06:03:30.294Z,99986.03
2023-01-23T06:09:02.119Z,99987.81
2023-01-23T06:14:06.018Z,100012.38
2023-01-23T06:19:11.190Z,100008.75
2023-01-23T06:24:14.372Z,100020.28
2023-01-23T06:29:17.329Z,100026.38
2023-01-23T06:34:21.602Z,100035.06
2023-01-23T06:39:32.339Z,100034.19
2023-01-23T06:44:36.088Z,100027.19
2023-01-23T06:49:40.838Z,100043.88
2023-01-23T06:54:44.588Z,100032.38
2023-01-23T06:59:47.993Z,100047.28
2023-01-23T07:04:53.666Z,100052.47
2023-01-23T07:09:56.568Z,100053.28
2023-01-23T07:15:01.269Z,100059.38
2023-01-23T07:20:14.274Z,100064.63
2023-01-23T07:25:21.595Z,100073.28
2023-01-23T07:30:24.849Z,100079.53
2023-01-23T07:35:29.269Z,100081.22
2023-01-23T07:40:32.062Z,100084.66
2023-01-23T07:45:35.091Z,100087.22
2023-01-23T07:50:39.330Z,100097.72
2023-01-23T07:55:42.383Z,100092.47
2023-01-23T08:00:45.887Z,100088.94
2023-01-23T08:05:51.236Z,100090.66
2023-01-23T08:10:53.935Z,100085.28
2023-01-23T08:15:58.994Z,100094.81
2023-01-23T08:21:04.255Z,100096.38
2023-01-23T08:26:09.344Z,100094.50
2023-01-23T08:31:14.359Z,100094.50
2023-01-23T08:36:18.872Z,100117.09
2023-01-23T08:41:21.866Z,100118.72
2023-01-23T08:46:25.015Z,100135.28
2023-01-23T08:51:29.458Z,100140.41
2023-01-23T08:56:32.922Z,100139.41
2023-01-23T09:01:35.839Z,100153.84
2023-01-23T09:06:40.053Z,100145.69
2023-01-23T09:11:42.866Z,100150.84
2023-01-23T09:16:45.717Z,100162.97
2023-01-23T09:21:49.944Z,100165.03
2023-01-23T09:26:52.641Z,100158.88
2023-01-23T09:31:55.600Z,100170.28
2023-01-23T09:36:59.755Z,100173.94
2023-01-23T09:42:08.517Z,100170.34
2023-01-23T09:47:17.220Z,100173.81
2023-01-23T09:52:24.759Z,100169.22
2023-01-23T09:57:35.998Z,100167.53
2023-01-23T10:02:38.884Z,100170.44
2023-01-23T10:07:55.435Z,100162.78
2023-01-23T10:13:05.835Z,100160.03
2023-01-23T10:18:19.929Z,100159.13
2023-01-23T10:23:41.163Z,100151.34
2023-01-23T10:28:44.956Z,100149.78
2023-01-23T10:33:53.544Z,100151.59
2023-01-23T10:39:03.063Z,100158.41
2023-01-23T10:44:14.596Z,100157.31
2023-01-23T10:49:30.354Z,100154.28
2023-01-23T10:54:46.738Z,100150.25
2023-01-23T10:59:55.566Z,100142.69
2023-01-23T11:04:59.015Z,100145.50
2023-01-23T11:10:19.196Z,100155.59
2023-01-23T11:15:24.805Z,100148.59
2023-01-23T11:20:30.701Z,100139.38
2023-01-23T11:25:38.492Z,100138.47
2023-01-23T11:30:48.558Z,100134.66
2023-01-23T11:35:59.980Z,100127.63
2023-01-23T11:41:05.361Z,100127.88
2023-01-23T11:46:37.422Z,100122.50
2023-01-23T11:51:49.231Z,100124.97
2023-01-23T11:57:02.596Z,100123.91
2023-01-23T12:02:27.151Z,100119.97
2023-01-23T12:07:34.151Z,100109.09
2023-01-23T12:12:55.078Z,100115.25
2023-01-23T12:18:07.617Z,100118.25
2023-01-23T12:23:25.174Z,100108.13
2023-01-23T12:28:49.486Z,100120.47
2023-01-23T12:34:08.378Z,100106.31
2023-01-23T12:39:23.576Z,100100.47
2023-01-23T12:44:35.039Z,100099.50
2023-01-23T12:49:43.646Z,100089.59
2023-01-23T12:54:51.878Z,100086.50
2023-01-23T13:00:05.012Z,100085.53
2023-01-23T13:05:17.180Z,100079.78
2023-01-23T13:10:59.419Z,100086.28
2023-01-23T13:16:10.128Z,100087.09
2023-01-23T13:21:31.273Z,100077.66
2023-01-23T13:26:39.351Z,100091.06
2023-01-23T13:31:46.800Z,100103.09
2023-01-23T13:36:50.920Z,100100.63
2023-01-23T13:42:44.277Z,100108.66
2023-01-23T14:21:30.435Z,100116.09
2023-01-23T14:26:50.012Z,100115.06
2023-01-23T14:31:53.473Z,100118.00
2023-01-23T14:37:03.928Z,100116.34
2023-01-23T14:42:11.599Z,100117.19
2023-01-23T14:47:21.020Z,100112.97
2023-01-23T14:52:25.854Z,100112.13
2023-01-23T14:57:29.612Z,100108.22
2023-01-23T15:02:34.830Z,100109.94
2023-01-23T15:07:46.785Z,100118.22
2023-01-23T15:12:53.040Z,100128.66
2023-01-23T15:17:57.234Z,100123.41
2023-01-23T15:23:22.180Z,100121.78
2023-01-23T15:28:32.232Z,100120.31
2023-01-23T15:33:39.674Z,100115.16
2023-01-23T15:38:49.112Z,100118.78
2023-01-23T15:43:51.931Z,100116.44
2023-01-23T15:48:54.960Z,100115.69
2023-01-23T15:53:59.206Z,100114.06
2023-01-23T15:59:02.808Z,100119.41
2023-01-23T16:04:05.775Z,100121.41
2023-01-23T16:09:19.576Z,100122.38
2023-01-23T16:14:22.460Z,100124.31
2023-01-23T16:19:25.192Z,100132.38
2023-01-23T16:24:30.784Z,100130.75
2023-01-23T16:29:35.352Z,100143.34
2023-01-23T16:34:38.703Z,100145.09
2023-01-23T16:39:44.562Z,100148.69
2023-01-23T16:44:47.400Z,100153.00
2023-01-23T16:49:53.344Z,100146.00
2023-01-23T16:54:58.315Z,100152.19
2023-01-23T17:00:01.380Z,100165.41
2023-01-23T17:05:04.327Z,100167.19
2023-01-23T17:10:11.183Z,100161.88
2023-01-23T17:15:21.940Z,100167.09
2023-01-23T17:20:25.307Z,100160.97
2023-01-23T17:25:31.429Z,100150.41
2023-01-23T17:30:34.771Z,100141.66
2023-01-23T17:35:38.630Z,100135.53
2023-01-23T17:40:42.937Z,100128.47
2023-01-23T17:45:48.222Z,100127.59
2023-01-23T17:50:51.109Z,100101.38
2023-01-23T17:55:55.836Z,100099.59
2023-01-23T18:00:59.512Z,100104.03
2023-01-23T18:06:02.736Z,100106.63
2023-01-23T18:11:07.719Z,100113.56
2023-01-23T18:16:15.126Z,100108.31
2023-01-23T18:21:18.581Z,100120.59
2023-01-23T18:26:33.828Z,100117.00
2023-01-23T18:31:45.030Z,100117.09
2023-01-23T18:37:00.446Z,100116.16
2023-01-23T18:42:15.930Z,100110.03
2023-01-23T18:47:19.985Z,100116.25
2023-01-23T18:52:29.518Z,100119.69
2023-01-23T18:57:49.653Z,100133.59
2023-01-23T19:02:55.332Z,100143.16
2023-01-23T19:07:59.873Z,100151.91
2023-01-23T19:13:14.376Z,100148.38
2023-01-23T19:18:46.208Z,100151.00
2023-01-23T19:23:59.277Z,100162.44
2023-01-23T19:29:20.593Z,100159.72
2023-01-23T19:34:24.370Z,100159.81
2023-01-23T19:39:27.270Z,100161.53
2023-01-23T19:44:31.504Z,100162.28
2023-01-23T19:49:34.383Z,100167.56
2023-01-23T19:54:37.171Z,100160.56
2023-01-23T19:59:41.417Z,100161.28
2023-01-23T20:04:44.225Z,100152.59
2023-01-23T20:09:47.381Z,100165.72
2023-01-23T20:14:51.677Z,100162.28
2023-01-23T20:19:54.454Z,100157.03
2023-01-23T20:24:57.434Z,100169.28
2023-01-23T20:30:02.537Z,100165.81
2023-01-23T20:35:06.120Z,100161.56
2023-01-23T20:40:10.580Z,100139.75
2023-01-23T20:45:14.770Z,100139.81
2023-01-23T20:50:18.051Z,100146.94
2023-01-23T20:55:21.076Z,100144.44
2023-01-23T21:00:25.762Z,100156.56
2023-01-23T21:05:28.968Z,100163.66
2023-01-23T21:10:31.800Z,100170.72
2023-01-23T21:15:35.956Z,100175.06
2023-01-23T21:20:40.074Z,100176.72
2023-01-23T21:25:42.950Z,100186.34
2023-01-23T21:30:47.194Z,100187.16
2023-01-23T21:35:50.586Z,100188.91
2023-01-23T21:40:54.781Z,100186.28
2023-01-23T21:45:59.094Z,100195.88
2023-01-23T21:51:06.220Z,100189.78
2023-01-23T21:56:10.180Z,100189.78
2023-01-23T22:01:34.684Z,100195.03
2023-01-23T22:06:39.520Z,100194.22
2023-01-23T22:11:42.317Z,100192.44
2023-01-23T22:16:49.828Z,100186.31
2023-01-23T22:21:53.209Z,100187.25
2023-01-23T22:26:55.957Z,100197.75
2023-01-23T22:32:00.076Z,100201.22
2023-01-23T22:37:03.016Z,100203.00
2023-01-23T22:42:06.066Z,100209.16
2023-01-23T22:47:10.893Z,100205.66
2023-01-23T22:52:13.654Z,100203.00
2023-01-23T22:57:16.447Z,100196.06
2023-01-23T23:02:20.529Z,100195.16
2023-01-23T23:07:23.234Z,100198.66
2023-01-23T23:12:28.555Z,100195.19
2023-01-23T23:17:32.864Z,100196.13
2023-01-23T23:22:35.769Z,100198.75
2023-01-23T23:27:39.068Z,100190.03
2023-01-23T23:32:43.258Z,100193.50
2023-01-23T23:37:45.987Z,100193.56
2023-01-23T23:42:48.720Z,100197.09
2023-01-23T23:47:52.891Z,100200.53
2023-01-23T23:52:55.613Z,100189.22
2023-01-23T23:57:59.790Z,100201.47
